Time;durP1;ratioP1;P1;durP2;ratioP2;P2;SDS_P1;SDS_P2;PMS_P1;PMS_P2;Temp;Humidity;BMP_temperature;BMP_pressure;BME280_temperature;BME280_humidity;BME280_pressure;Samples;Min_cycle;Max_cycle;Signal;HPM_P1;HPM_P2
2022/12/06 00:01:23;;;;;;;4.05;2.20;;;;;12.30;101873.00;;;;5011874;28;20192;-75
2022/12/06 00:03:53;;;;;;;2.65;2.22;;;;;12.20;101871.00;;;;5011726;28;20385;-75
2022/12/06 00:06:22;;;;;;;3.13;2.03;;;;;12.20;101861.00;;;;5010781;28;20204;-75
2022/12/06 00:08:51;;;;;;;2.85;2.35;;;;;12.20;101870.00;;;;5006113;28;20200;-74
2022/12/06 00:11:20;;;;;;;6.32;2.42;;;;;12.20;101874.00;;;;5006579;28;20214;-74
2022/12/06 00:13:51;;;;;;;3.92;2.30;;;;;12.20;101872.00;;;;5010846;28;20196;-75
2022/12/06 00:16:20;;;;;;;4.22;2.22;;;;;12.20;101871.00;;;;5010262;28;20287;-75
2022/12/06 00:18:48;;;;;;;2.95;1.95;;;;;12.20;101863.00;;;;5012673;28;20220;-74
2022/12/06 00:21:19;;;;;;;4.60;2.42;;;;;12.20;101870.00;;;;5011086;28;20208;-75
2022/12/06 00:23:49;;;;;;;3.17;2.15;;;;;12.20;101859.00;;;;5010703;28;20254;-74
2022/12/06 00:26:17;;;;;;;5.68;2.33;;;;;12.20;101865.00;;;;5013746;28;20192;-75
2022/12/06 00:28:45;;;;;;;5.85;2.28;;;;;12.20;101865.00;;;;5008064;28;20208;-75
2022/12/06 00:31:15;;;;;;;4.03;2.25;;;;;12.20;101865.00;;;;5012234;28;20192;-74
2022/12/06 00:33:44;;;;;;;3.42;2.28;;;;;12.20;101872.00;;;;5007017;28;21686;-75
2022/12/06 00:36:13;;;;;;;2.55;1.92;;;;;12.20;101874.00;;;;5008751;28;20853;-75
2022/12/06 00:38:41;;;;;;;4.35;2.42;;;;;12.20;101864.00;;;;5011748;28;20244;-75
2022/12/06 00:41:11;;;;;;;3.58;1.95;;;;;12.20;101872.00;;;;5014856;28;20276;-75
2022/12/06 00:43:38;;;;;;;4.32;1.90;;;;;12.30;101879.00;;;;5024807;28;20208;-75
2022/12/06 00:46:07;;;;;;;7.03;2.47;;;;;12.20;101882.00;;;;5013499;28;20287;-75
2022/12/06 00:48:35;;;;;;;4.93;2.72;;;;;12.30;101875.00;;;;5009128;28;20303;-74
2022/12/06 00:51:04;;;;;;;2.60;1.85;;;;;12.20;101871.00;;;;5007203;28;20189;-74
2022/12/06 00:53:31;;;;;;;3.75;2.13;;;;;12.20;101881.00;;;;5005663;28;20204;-75
2022/12/06 00:55:58;;;;;;;4.45;2.10;;;;;12.30;101881.00;;;;5004869;28;20638;-75
2022/12/06 00:58:26;;;;;;;2.50;1.92;;;;;12.30;101879.00;;;;5008098;28;20240;-74
2022/12/06 01:00:54;;;;;;;3.88;1.80;;;;;12.30;101875.00;;;;5013628;28;20209;-74
2022/12/06 01:03:21;;;;;;;4.18;2.42;;;;;12.30;101888.00;;;;5008039;28;20224;-74
2022/12/06 01:05:50;;;;;;;3.90;2.28;;;;;12.30;101882.00;;;;5012107;28;20307;-75
2022/12/06 01:08:19;;;;;;;4.93;1.85;;;;;12.30;101873.00;;;;5009795;28;20200;-75
2022/12/06 01:10:52;;;;;;;4.63;1.95;;;;;12.20;101874.00;;;;5017839;28;20200;-75
2022/12/06 01:13:20;;;;;;;4.18;2.08;;;;;12.30;101878.00;;;;5018227;28;20306;-75
2022/12/06 01:15:47;;;;;;;4.78;2.33;;;;;12.30;101877.00;;;;5012943;28;20203;-75
2022/12/06 01:18:14;;;;;;;3.15;2.30;;;;;12.30;101870.00;;;;5008810;28;20224;-75
2022/12/06 01:20:42;;;;;;;3.95;2.53;;;;;12.30;101870.00;;;;5010229;28;20203;-75
2022/12/06 01:23:09;;;;;;;4.18;2.08;;;;;12.30;101876.00;;;;5007462;28;20205;-75
2022/12/06 01:25:38;;;;;;;4.72;2.15;;;;;12.30;101871.00;;;;5011775;28;20196;-75
2022/12/06 01:28:05;;;;;;;4.22;2.05;;;;;12.30;101870.00;;;;5014969;28;20207;-75
2022/12/06 01:30:33;;;;;;;4.80;1.95;;;;;12.30;101871.00;;;;5018300;28;20220;-75
2022/12/06 01:33:00;;;;;;;2.22;1.75;;;;;12.30;101874.00;;;;5014731;28;20203;-75
2022/12/06 01:35:27;;;;;;;4.18;1.98;;;;;12.30;101869.00;;;;5017974;28;20224;-75
2022/12/06 01:37:54;;;;;;;4.53;2.08;;;;;12.30;101870.00;;;;5021242;28;20201;-75
2022/12/06 01:40:22;;;;;;;3.33;1.98;;;;;12.30;101871.00;;;;5012742;28;20208;-75
2022/12/06 01:42:50;;;;;;;3.53;1.90;;;;;12.20;101870.00;;;;5015856;28;20199;-75
2022/12/06 01:45:17;;;;;;;6.18;2.25;;;;;12.30;101873.00;;;;5025963;28;20204;-75
2022/12/06 01:47:45;;;;;;;3.13;1.50;;;;;12.30;101870.00;;;;5012699;28;20205;-75
2022/12/06 01:50:17;;;;;;;4.40;2.30;;;;;12.20;101872.00;;;;5012007;28;20200;-75
2022/12/06 01:52:51;;;;;;;2.80;1.90;;;;;12.20;101863.00;;;;5014157;28;20212;-75
2022/12/06 01:55:20;;;;;;;3.58;2.05;;;;;12.20;101863.00;;;;5017861;28;20786;-75
2022/12/06 01:57:48;;;;;;;3.25;1.65;;;;;12.20;101861.00;;;;5010172;28;20204;-75
2022/12/06 02:00:18;;;;;;;4.47;1.80;;;;;12.20;101858.00;;;;5010788;28;20231;-75
2022/12/06 02:02:45;;;;;;;2.78;1.88;;;;;12.20;101853.00;;;;5020133;28;20670;-74
2022/12/06 02:05:15;;;;;;;5.05;1.50;;;;;12.20;101856.00;;;;5018715;28;20586;-74
2022/12/06 02:07:44;;;;;;;2.53;1.52;;;;;12.20;101855.00;;;;5010444;28;20671;-75
2022/12/06 02:10:13;;;;;;;3.13;1.73;;;;;12.10;101855.00;;;;5016258;28;20204;-75
2022/12/06 02:12:40;;;;;;;2.10;1.40;;;;;12.10;101854.00;;;;5012254;28;20958;-75
2022/12/06 02:15:09;;;;;;;3.08;1.63;;;;;12.10;101854.00;;;;5027735;28;20192;-75
2022/12/06 02:17:45;;;;;;;2.97;1.42;;;;;12.00;101857.00;;;;5016391;28;20586;-75
2022/12/06 02:20:21;;;;;;;4.93;1.80;;;;;12.00;101850.00;;;;5019113;28;20706;-75
2022/12/06 02:23:38;;;;;;;5.38;1.70;;;;;11.90;101847.00;;;;5021989;28;20200;-75
2022/12/06 02:26:28;;;;;;;3.33;1.42;;;;;11.80;101856.00;;;;4929435;29;20211;-75
2022/12/06 02:29:27;;;;;;;5.10;1.63;;;;;11.80;101858.00;;;;5005162;28;20197;-75
2022/12/06 02:31:59;;;;;;;3.05;1.23;;;;;11.80;101848.00;;;;5025076;28;20614;-74
2022/12/06 02:34:33;;;;;;;3.00;1.38;;;;;11.80;101845.00;;;;5009667;28;20196;-75
2022/12/06 02:37:07;;;;;;;4.88;1.48;;;;;11.80;101840.00;;;;5011000;28;20200;-75
2022/12/06 02:39:38;;;;;;;3.45;1.35;;;;;11.80;101838.00;;;;5018423;28;20225;-75
2022/12/06 02:42:11;;;;;;;2.28;1.35;;;;;11.80;101845.00;;;;5011403;28;20761;-75
2022/12/06 02:44:41;;;;;;;3.63;1.60;;;;;11.70;101848.00;;;;5015309;28;20193;-75
2022/12/06 02:47:12;;;;;;;3.40;1.52;;;;;11.70;101850.00;;;;5014878;28;20208;-75
2022/12/06 02:49:43;;;;;;;4.57;1.95;;;;;11.70;101843.00;;;;5013407;28;20204;-74
2022/12/06 02:52:12;;;;;;;3.70;1.60;;;;;11.70;101848.00;;;;5012275;28;20670;-74
2022/12/06 02:54:41;;;;;;;3.97;1.63;;;;;11.70;101848.00;;;;5013375;28;21551;-74
2022/12/06 02:57:08;;;;;;;4.95;1.70;;;;;11.70;101846.00;;;;5013407;28;20201;-74
2022/12/06 02:59:37;;;;;;;2.80;1.40;;;;;11.70;101846.00;;;;5012525;28;20247;-74
2022/12/06 03:02:09;;;;;;;1.83;1.42;;;;;11.70;101855.00;;;;5012332;28;20205;-74
2022/12/06 03:04:53;;;;;;;4.22;1.60;;;;;11.70;101847.00;;;;5012678;28;20220;-74
2022/12/06 03:07:35;;;;;;;3.47;1.60;;;;;11.70;101848.00;;;;5009102;28;20232;-74
2022/12/06 03:10:22;;;;;;;2.42;1.60;;;;;11.70;101850.00;;;;5012848;28;20200;-74
2022/12/06 03:12:59;;;;;;;1.75;1.20;;;;;11.80;101850.00;;;;5008838;28;20928;-74
2022/12/06 03:15:36;;;;;;;5.63;1.75;;;;;11.80;101848.00;;;;5009281;28;20204;-74
2022/12/06 03:18:11;;;;;;;2.00;1.40;;;;;11.80;101859.00;;;;5010484;28;20526;-74
2022/12/06 03:20:46;;;;;;;4.20;1.30;;;;;11.80;101845.00;;;;5012357;28;20231;-74
2022/12/06 03:23:17;;;;;;;1.75;1.08;;;;;11.80;101849.00;;;;5011658;28;20197;-74
2022/12/06 03:25:46;;;;;;;3.22;1.38;;;;;11.80;101852.00;;;;5013706;28;20211;-74
2022/12/06 03:28:16;;;;;;;3.20;1.35;;;;;11.90;101843.00;;;;5012784;28;20192;-74
2022/12/06 03:30:47;;;;;;;4.28;1.60;;;;;11.80;101849.00;;;;5009485;28;20197;-74
2022/12/06 03:33:17;;;;;;;2.47;1.27;;;;;11.80;101849.00;;;;5011370;28;20200;-74
2022/12/06 03:35:48;;;;;;;2.22;1.25;;;;;11.80;101842.00;;;;5007493;28;20255;-74
2022/12/06 03:38:21;;;;;;;1.85;1.25;;;;;11.80;101848.00;;;;5020449;28;20571;-74
2022/12/06 03:40:51;;;;;;;2.30;1.00;;;;;11.80;101851.00;;;;5013383;28;20240;-74
2022/12/06 03:43:19;;;;;;;3.22;1.50;;;;;11.80;101846.00;;;;5013156;28;20189;-74
2022/12/06 03:45:53;;;;;;;2.53;1.33;;;;;11.80;101848.00;;;;5021273;28;20687;-74
2022/12/06 03:48:26;;;;;;;2.15;1.35;;;;;11.80;101849.00;;;;5010644;28;20625;-74
2022/12/06 03:50:58;;;;;;;1.63;0.93;;;;;11.80;101842.00;;;;5013326;28;20701;-74
2022/12/06 03:53:26;;;;;;;2.33;0.93;;;;;11.80;101843.00;;;;5009947;28;20222;-74
2022/12/06 03:55:53;;;;;;;2.38;1.10;;;;;11.80;101843.00;;;;5011256;28;20208;-74
2022/12/06 03:58:20;;;;;;;4.20;1.38;;;;;11.90;101845.00;;;;5019692;28;20215;-74
2022/12/06 04:00:48;;;;;;;1.80;1.10;;;;;11.90;101839.00;;;;5020221;28;20728;-74
2022/12/06 04:03:15;;;;;;;2.55;1.02;;;;;11.90;101842.00;;;;5016750;28;20666;-74
2022/12/06 04:05:43;;;;;;;2.08;1.30;;;;;11.90;101842.00;;;;5018830;28;20235;-74
2022/12/06 04:08:11;;;;;;;3.30;1.50;;;;;11.90;101851.00;;;;5016934;28;20215;-74
2022/12/06 04:10:38;;;;;;;1.73;1.20;;;;;11.90;101848.00;;;;5024251;28;20211;-74
2022/12/06 04:13:06;;;;;;;4.22;1.58;;;;;11.90;101848.00;;;;5013609;28;20561;-74
2022/12/06 04:15:35;;;;;;;3.00;1.08;;;;;11.90;101844.00;;;;5020144;28;20196;-74
2022/12/06 04:18:10;;;;;;;2.05;1.20;;;;;11.90;101846.00;;;;5021677;28;20197;-74
2022/12/06 04:23:29;;;;;;;2.92;1.25;;;;;11.90;101848.00;;;;5008756;28;20690;-74
2022/12/06 04:25:58;;;;;;;1.63;0.90;;;;;11.80;101840.00;;;;5019354;28;20211;-74
2022/12/06 04:39:27;;;;;;;1.65;1.10;;;;;11.80;101847.00;;;;5007720;28;20307;-74
2022/12/06 04:44:39;;;;;;;1.33;0.90;;;;;11.80;101838.00;;;;5009718;28;20263;-74
2022/12/06 04:47:07;;;;;;;3.75;1.10;;;;;11.80;101841.00;;;;5007024;28;20205;-74
2022/12/06 04:49:35;;;;;;;1.70;1.02;;;;;11.80;101839.00;;;;5006232;28;20670;-74
2022/12/06 04:52:04;;;;;;;1.75;1.23;;;;;11.80;101838.00;;;;5009719;28;20686;-74
2022/12/06 04:54:33;;;;;;;2.55;1.05;;;;;11.80;101831.00;;;;5017459;28;20208;-74
2022/12/06 04:57:00;;;;;;;4.15;1.30;;;;;11.80;101834.00;;;;5023760;28;20579;-74
2022/12/06 04:59:28;;;;;;;2.53;0.55;;;;;11.80;101835.00;;;;5016924;28;20232;-74
2022/12/06 05:01:56;;;;;;;2.10;1.05;;;;;11.80;101832.00;;;;5015803;28;20200;-74
2022/12/06 05:04:24;;;;;;;3.45;1.00;;;;;11.80;101838.00;;;;5014031;28;20226;-74
2022/12/06 05:06:51;;;;;;;2.92;0.88;;;;;11.80;101826.00;;;;5015173;28;20201;-74
2022/12/06 05:09:19;;;;;;;3.17;1.35;;;;;11.90;101829.00;;;;5020643;28;20246;-74
2022/12/06 05:11:47;;;;;;;2.45;1.13;;;;;11.90;101826.00;;;;5015581;28;20204;-74
2022/12/06 05:14:15;;;;;;;1.83;0.70;;;;;11.90;101825.00;;;;5013859;28;20201;-74
2022/12/06 05:16:42;;;;;;;1.88;0.90;;;;;11.90;101829.00;;;;5024283;28;20200;-74
2022/12/06 05:19:11;;;;;;;4.00;1.20;;;;;11.90;101824.00;;;;5018866;28;20693;-74
2022/12/06 05:21:39;;;;;;;1.48;0.70;;;;;11.90;101829.00;;;;5017143;28;20196;-74
2022/12/06 05:24:07;;;;;;;1.42;0.77;;;;;11.90;101826.00;;;;5015132;28;21048;-75
2022/12/06 05:26:34;;;;;;;1.35;0.90;;;;;11.80;101823.00;;;;5014048;28;20192;-75
2022/12/06 05:29:03;;;;;;;2.08;0.65;;;;;11.80;101823.00;;;;5013107;28;20205;-75
2022/12/06 05:31:31;;;;;;;1.30;0.80;;;;;11.80;101823.00;;;;5012255;28;20193;-74
2022/12/06 05:33:58;;;;;;;1.15;0.80;;;;;11.80;101823.00;;;;5014920;28;20193;-75
2022/12/06 05:36:27;;;;;;;4.22;1.02;;;;;11.80;101823.00;;;;5014134;28;20224;-75
2022/12/06 05:38:55;;;;;;;1.40;0.63;;;;;11.80;101821.00;;;;5034410;28;20203;-75
2022/12/06 05:41:24;;;;;;;5.63;1.20;;;;;11.80;101821.00;;;;5029240;28;20203;-75
2022/12/06 05:43:51;;;;;;;6.05;1.17;;;;;11.80;101828.00;;;;5023675;28;20201;-75
2022/12/06 05:46:20;;;;;;;2.67;1.00;;;;;11.80;101824.00;;;;5013376;28;20205;-75
2022/12/06 05:48:48;;;;;;;1.83;0.90;;;;;11.70;101836.00;;;;5013452;28;20286;-74
2022/12/06 05:51:17;;;;;;;1.40;0.80;;;;;11.70;101828.00;;;;5015029;28;20215;-74
2022/12/06 05:53:44;;;;;;;1.45;0.98;;;;;11.70;101829.00;;;;5014436;28;20203;-74
2022/12/06 05:56:12;;;;;;;2.08;1.23;;;;;11.70;101833.00;;;;5013405;28;20208;-75
2022/12/06 05:58:40;;;;;;;2.22;0.80;;;;;11.70;101828.00;;;;5014498;28;20200;-75
2022/12/06 06:01:09;;;;;;;2.33;1.20;;;;;11.70;101825.00;;;;5013992;28;20754;-75
2022/12/06 06:03:38;;;;;;;4.22;0.90;;;;;11.70;101834.00;;;;5015734;28;20224;-75
2022/12/06 06:06:06;;;;;;;1.13;0.60;;;;;11.70;101832.00;;;;5015351;28;20244;-75
2022/12/06 06:08:33;;;;;;;1.92;0.85;;;;;11.70;101835.00;;;;5012512;28;20200;-75
2022/12/06 06:11:00;;;;;;;1.92;0.93;;;;;11.70;101839.00;;;;5007239;28;20205;-75
2022/12/06 06:13:28;;;;;;;3.22;0.68;;;;;11.70;101828.00;;;;5020739;28;20216;-75
2022/12/06 06:15:55;;;;;;;2.70;0.65;;;;;11.70;101841.00;;;;5013564;28;20232;-75
2022/12/06 06:18:23;;;;;;;1.33;0.75;;;;;11.70;101837.00;;;;5011815;28;20193;-75
2022/12/06 06:20:53;;;;;;;1.15;0.75;;;;;11.70;101835.00;;;;5007358;28;20730;-75
2022/12/06 06:23:21;;;;;;;3.30;1.40;;;;;11.70;101833.00;;;;5011261;28;20208;-75
2022/12/06 06:25:48;;;;;;;1.08;0.60;;;;;11.70;101837.00;;;;5012436;28;20196;-74
2022/12/06 06:28:16;;;;;;;1.60;0.93;;;;;11.70;101835.00;;;;5010167;28;22612;-75
2022/12/06 06:30:44;;;;;;;2.55;0.80;;;;;11.70;101834.00;;;;5009640;28;20233;-76
2022/12/06 06:33:11;;;;;;;1.45;0.68;;;;;11.70;101831.00;;;;5015254;28;20550;-75
2022/12/06 06:35:39;;;;;;;1.33;0.85;;;;;11.70;101835.00;;;;5019099;28;20229;-74
2022/12/06 06:38:08;;;;;;;1.77;1.00;;;;;11.70;101836.00;;;;5011674;28;20209;-74
2022/12/06 06:40:35;;;;;;;1.63;0.80;;;;;11.70;101831.00;;;;5009742;28;20227;-75
2022/12/06 06:43:16;;;;;;;1.10;0.85;;;;;11.60;101828.00;;;;5019683;28;20212;-75
2022/12/06 06:45:45;;;;;;;1.58;0.95;;;;;11.60;101831.00;;;;5010238;28;20216;-75
2022/12/06 06:48:13;;;;;;;1.42;0.70;;;;;11.60;101832.00;;;;5007183;28;20675;-75
2022/12/06 06:50:40;;;;;;;2.05;0.85;;;;;11.60;101826.00;;;;5010942;28;20251;-75
2022/12/06 06:53:09;;;;;;;1.30;0.65;;;;;11.60;101823.00;;;;5012961;28;20204;-75
2022/12/06 06:55:36;;;;;;;1.67;0.70;;;;;11.60;101825.00;;;;5014560;28;20207;-75
2022/12/06 06:58:05;;;;;;;1.77;0.82;;;;;11.60;101823.00;;;;5020711;28;20982;-75
2022/12/06 07:00:32;;;;;;;1.13;0.70;;;;;11.60;101823.00;;;;5012074;28;20711;-75
2022/12/06 07:03:00;;;;;;;1.92;1.02;;;;;11.60;101822.00;;;;5012288;28;20201;-76
2022/12/06 07:05:27;;;;;;;1.60;0.68;;;;;11.60;101824.00;;;;5024303;28;20213;-76
2022/12/06 07:07:56;;;;;;;1.08;0.70;;;;;11.60;101822.00;;;;5010608;28;20210;-75
2022/12/06 07:10:26;;;;;;;1.02;0.65;;;;;11.60;101823.00;;;;5012008;28;20208;-75
2022/12/06 07:12:54;;;;;;;3.28;0.90;;;;;11.60;101821.00;;;;5011886;28;20201;-76
2022/12/06 07:15:21;;;;;;;5.22;1.00;;;;;11.60;101812.00;;;;5025301;28;20211;-75
2022/12/06 07:17:50;;;;;;;1.73;0.80;;;;;11.60;101824.00;;;;5026136;28;20208;-76
2022/12/06 07:20:18;;;;;;;1.45;0.93;;;;;11.50;101816.00;;;;5022200;28;20220;-76
2022/12/06 07:22:45;;;;;;;1.52;0.85;;;;;11.50;101811.00;;;;5021943;28;20761;-75
2022/12/06 07:25:12;;;;;;;1.70;0.98;;;;;11.50;101804.00;;;;5011869;28;20271;-76
2022/12/06 07:27:41;;;;;;;1.75;0.90;;;;;11.40;101812.00;;;;5009977;28;20259;-76
2022/12/06 07:30:09;;;;;;;1.98;1.10;;;;;11.40;101809.00;;;;5025196;28;20208;-75
2022/12/06 07:32:37;;;;;;;3.28;0.90;;;;;11.30;101817.00;;;;5029844;28;20216;-75
2022/12/06 07:35:05;;;;;;;1.58;0.88;;;;;11.30;101808.00;;;;5028712;28;20736;-75
2022/12/06 07:37:32;;;;;;;2.25;1.38;;;;;11.20;101815.00;;;;5014105;28;20205;-75
2022/12/06 07:40:00;;;;;;;2.30;1.10;;;;;11.20;101818.00;;;;5023135;28;20229;-76
2022/12/06 07:45:15;;;;;;;2.55;1.15;;;;;11.00;101812.00;;;;5020443;28;20302;-76
2022/12/06 07:47:44;;;;;;;4.25;1.38;;;;;11.00;101817.00;;;;5010037;28;20259;-75
2022/12/06 07:50:14;;;;;;;2.50;1.27;;;;;10.90;101818.00;;;;5009617;28;20197;-75
2022/12/06 07:52:42;;;;;;;2.35;1.17;;;;;10.90;101821.00;;;;5019948;28;20201;-75
2022/12/06 07:55:11;;;;;;;1.98;1.40;;;;;10.80;101829.00;;;;5016769;28;20193;-75
2022/12/06 07:57:39;;;;;;;1.83;1.10;;;;;10.80;101837.00;;;;5028676;28;20204;-75
2022/12/06 08:00:08;;;;;;;3.97;1.88;;;;;10.70;101832.00;;;;5020956;28;20224;-75
2022/12/06 08:02:37;;;;;;;4.32;1.75;;;;;10.70;101830.00;;;;5015814;28;20196;-75
2022/12/06 08:05:05;;;;;;;3.33;1.83;;;;;10.60;101833.00;;;;5014659;28;20215;-75
2022/12/06 08:07:32;;;;;;;3.40;1.80;;;;;10.60;101843.00;;;;5009431;28;20209;-75
2022/12/06 08:09:59;;;;;;;2.40;1.55;;;;;10.60;101840.00;;;;5008536;28;20223;-75
2022/12/06 08:12:29;;;;;;;2.03;1.02;;;;;10.50;101839.00;;;;5019010;28;20192;-75
2022/12/06 08:14:56;;;;;;;2.10;1.52;;;;;10.50;101843.00;;;;5014071;28;20197;-75
2022/12/06 08:17:24;;;;;;;3.53;1.67;;;;;10.50;101843.00;;;;5008239;28;20295;-75
2022/12/06 08:19:53;;;;;;;2.55;2.05;;;;;10.40;101840.00;;;;5013547;28;20278;-75
2022/12/06 08:22:20;;;;;;;3.80;1.52;;;;;10.40;101841.00;;;;5028804;28;20205;-75
2022/12/06 08:24:48;;;;;;;2.72;1.85;;;;;10.30;101846.00;;;;5022120;28;20209;-75
2022/12/06 08:27:15;;;;;;;4.95;1.67;;;;;10.30;101844.00;;;;5008815;28;20208;-76
2022/12/06 08:29:44;;;;;;;4.07;2.20;;;;;10.30;101847.00;;;;5009147;28;20208;-76
2022/12/06 08:32:11;;;;;;;2.88;1.73;;;;;10.30;101847.00;;;;5020068;28;20287;-76
2022/12/06 08:34:39;;;;;;;3.25;2.30;;;;;10.20;101843.00;;;;5007748;28;20294;-75
2022/12/06 08:37:07;;;;;;;3.15;2.13;;;;;10.20;101842.00;;;;5008812;28;20204;-75
2022/12/06 08:39:35;;;;;;;3.83;2.10;;;;;10.20;101846.00;;;;5007892;28;20216;-75
2022/12/06 08:42:05;;;;;;;3.70;2.10;;;;;10.20;101845.00;;;;5013325;28;20235;-75
2022/12/06 08:44:32;;;;;;;2.78;2.15;;;;;10.20;101846.00;;;;5027654;28;20227;-75
2022/12/06 08:47:01;;;;;;;3.05;1.88;;;;;10.10;101844.00;;;;5013562;28;20208;-75
2022/12/06 08:49:29;;;;;;;4.97;1.95;;;;;10.10;101846.00;;;;5009644;28;20201;-75
2022/12/06 08:51:59;;;;;;;2.85;2.00;;;;;10.10;101846.00;;;;5009866;28;20674;-75
2022/12/06 08:54:27;;;;;;;2.85;1.65;;;;;10.10;101843.00;;;;5019373;28;20613;-76
2022/12/06 08:56:55;;;;;;;2.83;1.52;;;;;10.20;101848.00;;;;5024859;28;20200;-75
2022/12/06 08:59:22;;;;;;;3.42;1.45;;;;;10.20;101849.00;;;;5027575;28;20200;-75
2022/12/06 09:01:50;;;;;;;2.13;1.65;;;;;10.20;101847.00;;;;5017233;28;20231;-75
2022/12/06 09:04:18;;;;;;;3.28;1.77;;;;;10.20;101849.00;;;;5016863;28;20223;-75
2022/12/06 09:06:45;;;;;;;2.95;2.05;;;;;10.20;101846.00;;;;5015363;28;20215;-75
2022/12/06 09:09:14;;;;;;;2.70;1.75;;;;;10.20;101844.00;;;;5008183;28;20220;-75
2022/12/06 09:11:44;;;;;;;2.65;1.75;;;;;10.20;101843.00;;;;5007729;28;20220;-75
2022/12/06 09:14:13;;;;;;;5.40;2.58;;;;;10.30;101853.00;;;;5007665;28;20204;-75
2022/12/06 09:16:42;;;;;;;3.53;2.45;;;;;10.30;101843.00;;;;5018391;28;20254;-75
2022/12/06 09:19:10;;;;;;;3.33;2.13;;;;;10.30;101842.00;;;;5012589;28;20197;-75
2022/12/06 09:21:41;;;;;;;5.57;2.35;;;;;10.30;101849.00;;;;5008055;28;20221;-75
2022/12/06 09:24:11;;;;;;;2.65;2.13;;;;;10.40;101848.00;;;;5007899;28;20557;-75
2022/12/06 09:26:39;;;;;;;2.30;1.88;;;;;10.40;101854.00;;;;5021363;28;20585;-75
2022/12/06 09:29:08;;;;;;;2.05;1.50;;;;;10.40;101851.00;;;;5017038;28;20655;-75
2022/12/06 09:31:38;;;;;;;2.42;1.80;;;;;10.50;101846.00;;;;5017056;28;20211;-76
2022/12/06 09:34:05;;;;;;;4.45;2.10;;;;;10.50;101857.00;;;;5017970;28;21027;-75
2022/12/06 09:36:33;;;;;;;1.92;1.60;;;;;10.60;101857.00;;;;5014277;28;20239;-75
2022/12/06 09:39:04;;;;;;;3.22;1.65;;;;;10.60;101860.00;;;;5022110;28;20212;-75
2022/12/06 09:41:54;;;;;;;3.13;1.80;;;;;10.60;101857.00;;;;5019554;28;20598;-76
2022/12/06 09:44:43;;;;;;;3.10;1.98;;;;;10.60;101853.00;;;;5012827;28;20197;-75
2022/12/06 09:47:19;;;;;;;2.22;1.67;;;;;10.70;101852.00;;;;5018060;28;20212;-76
2022/12/06 09:49:57;;;;;;;2.45;1.58;;;;;10.70;101853.00;;;;5011383;28;20211;-75
2022/12/06 09:52:48;;;;;;;2.10;1.40;;;;;10.80;101853.00;;;;5011107;28;20204;-75
2022/12/06 09:55:35;;;;;;;3.33;1.33;;;;;10.90;101854.00;;;;5011304;28;20204;-75
2022/12/06 09:58:13;;;;;;;1.80;1.25;;;;;11.00;101859.00;;;;5011361;28;20288;-75
2022/12/06 10:00:48;;;;;;;1.88;1.50;;;;;11.10;101861.00;;;;5009188;28;20224;-76
2022/12/06 10:03:37;;;;;;;1.60;1.02;;;;;11.20;101852.00;;;;5019442;28;20192;-76
2022/12/06 10:06:11;;;;;;;1.80;1.17;;;;;11.40;101851.00;;;;5029760;28;20307;-76
2022/12/06 10:08:56;;;;;;;2.63;1.10;;;;;11.40;101849.00;;;;5012187;28;20205;-75
2022/12/06 10:11:47;;;;;;;1.88;1.30;;;;;11.50;101845.00;;;;5010895;28;21133;-75
2022/12/06 10:14:30;;;;;;;2.80;1.42;;;;;11.60;101839.00;;;;5010447;28;20204;-76
2022/12/06 10:17:08;;;;;;;1.60;1.15;;;;;11.70;101847.00;;;;5017561;28;20197;-76
2022/12/06 10:19:45;;;;;;;2.08;1.40;;;;;11.80;101845.00;;;;5013807;28;20734;-75
2022/12/06 10:22:19;;;;;;;1.50;1.00;;;;;11.90;101838.00;;;;5029612;28;20638;-75
2022/12/06 10:24:57;;;;;;;2.17;1.40;;;;;11.90;101837.00;;;;5030091;28;20196;-75
2022/12/06 10:27:36;;;;;;;1.50;1.13;;;;;12.00;101838.00;;;;5009296;28;20201;-76
2022/12/06 10:30:09;;;;;;;1.95;1.25;;;;;12.00;101836.00;;;;5008811;28;20200;-76
2022/12/06 10:32:53;;;;;;;3.53;1.30;;;;;12.00;101836.00;;;;5019151;28;20243;-76
2022/12/06 10:35:35;;;;;;;2.30;1.40;;;;;12.10;101829.00;;;;5013345;28;20244;-75
2022/12/06 10:38:11;;;;;;;3.05;1.42;;;;;12.20;101830.00;;;;5027182;28;20196;-76
2022/12/06 10:40:49;;;;;;;1.85;1.35;;;;;12.30;101830.00;;;;5017450;28;20219;-76
2022/12/06 10:43:23;;;;;;;2.17;1.42;;;;;12.40;101830.00;;;;5029083;28;20200;-76
2022/12/06 10:48:57;;;;;;;3.15;1.65;;;;;12.50;101821.00;;;;5009518;28;20224;-76
2022/12/06 10:51:31;;;;;;;3.75;1.70;;;;;12.60;101821.00;;;;5010142;28;20200;-76
2022/12/06 10:54:04;;;;;;;2.67;1.58;;;;;12.70;101823.00;;;;5024504;28;20200;-76
2022/12/06 10:56:36;;;;;;;2.22;1.33;;;;;12.70;101824.00;;;;5016622;28;20209;-76
2022/12/06 10:59:17;;;;;;;2.33;1.70;;;;;12.70;101817.00;;;;5019208;28;20198;-76
2022/12/06 11:01:46;;;;;;;2.75;1.77;;;;;12.80;101828.00;;;;5007694;28;20247;-75
2022/12/06 11:04:20;;;;;;;3.03;1.70;;;;;12.80;101823.00;;;;5009725;28;20225;-76
2022/12/06 11:06:50;;;;;;;2.22;1.65;;;;;12.90;101821.00;;;;5013801;28;20208;-76
2022/12/06 11:09:23;;;;;;;3.72;1.55;;;;;12.90;101823.00;;;;5012061;28;20201;-76
2022/12/06 11:11:51;;;;;;;2.85;1.60;;;;;13.00;101820.00;;;;5029255;28;20211;-76
2022/12/06 11:14:25;;;;;;;2.65;1.20;;;;;13.00;101825.00;;;;5018058;28;20544;-75
2022/12/06 11:16:56;;;;;;;2.13;1.35;;;;;13.10;101816.00;;;;5019913;28;20200;-76
2022/12/06 11:19:33;;;;;;;2.67;1.75;;;;;13.10;101814.00;;;;5023004;28;20200;-76
2022/12/06 11:22:17;;;;;;;2.42;1.73;;;;;13.20;101815.00;;;;5010113;28;20224;-75
2022/12/06 11:24:52;;;;;;;2.95;1.50;;;;;13.20;101815.00;;;;5009495;28;20205;-76
2022/12/06 11:27:30;;;;;;;2.22;1.75;;;;;13.30;101811.00;;;;5014076;28;20195;-76
2022/12/06 11:29:58;;;;;;;2.33;1.40;;;;;13.40;101811.00;;;;5015994;28;20196;-76
2022/12/06 11:32:25;;;;;;;4.90;1.67;;;;;13.50;101803.00;;;;5018957;28;20208;-76
2022/12/06 11:34:56;;;;;;;2.72;1.55;;;;;13.50;101807.00;;;;5026255;28;20235;-75
2022/12/06 11:37:26;;;;;;;3.17;1.40;;;;;13.50;101809.00;;;;5029802;28;20214;-75
2022/12/06 11:39:59;;;;;;;2.85;2.35;;;;;13.60;101801.00;;;;5028879;28;20192;-75
2022/12/06 11:42:28;;;;;;;2.90;1.63;;;;;13.60;101805.00;;;;5009849;28;20220;-75
2022/12/06 11:44:59;;;;;;;3.60;1.52;;;;;13.60;101801.00;;;;5013286;28;20213;-76
2022/12/06 11:47:27;;;;;;;3.33;1.88;;;;;13.70;101795.00;;;;5016878;28;20200;-76
2022/12/06 11:49:56;;;;;;;2.50;1.73;;;;;13.70;101802.00;;;;5022233;28;20207;-76
2022/12/06 11:52:29;;;;;;;1.90;1.40;;;;;13.70;101795.00;;;;5008865;28;20213;-76
2022/12/06 11:54:59;;;;;;;2.10;1.52;;;;;13.70;101794.00;;;;5008901;28;20596;-76
2022/12/06 11:57:29;;;;;;;4.20;1.85;;;;;13.70;101795.00;;;;5023453;28;20200;-76
2022/12/06 12:00:14;;;;;;;2.70;1.67;;;;;13.70;101784.00;;;;5013040;28;20201;-75
2022/12/06 12:02:42;;;;;;;1.70;1.30;;;;;13.80;101789.00;;;;5026851;28;20238;-76
2022/12/06 12:05:18;;;;;;;1.92;1.40;;;;;13.80;101784.00;;;;5026267;28;20714;-75
2022/12/06 12:07:49;;;;;;;2.03;1.42;;;;;13.80;101786.00;;;;5014530;28;20818;-76
2022/12/06 12:10:31;;;;;;;2.80;1.55;;;;;13.80;101784.00;;;;5020326;28;20254;-75
2022/12/06 12:16:12;;;;;;;2.60;1.30;;;;;13.90;101789.00;;;;5011040;28;20334;-76
2022/12/06 12:18:48;;;;;;;2.00;1.13;;;;;13.90;101789.00;;;;5021381;28;20200;-75
2022/12/06 12:21:17;;;;;;;2.60;1.63;;;;;14.00;101788.00;;;;5017009;28;20224;-76
2022/12/06 12:23:46;;;;;;;1.90;1.45;;;;;14.00;101782.00;;;;5011711;28;20208;-75
2022/12/06 12:26:16;;;;;;;2.15;1.48;;;;;14.00;101777.00;;;;5009517;28;20300;-76
2022/12/06 12:28:45;;;;;;;5.85;1.20;;;;;14.00;101769.00;;;;5008937;28;20675;-75
2022/12/06 12:31:18;;;;;;;2.30;1.55;;;;;14.00;101765.00;;;;5013353;28;20211;-76
2022/12/06 12:33:46;;;;;;;3.97;1.38;;;;;14.10;101756.00;;;;5026066;28;20674;-76
2022/12/06 12:36:25;;;;;;;1.92;1.05;;;;;14.00;101764.00;;;;5024759;28;20236;-76
2022/12/06 12:38:56;;;;;;;1.42;1.20;;;;;14.10;101766.00;;;;5025794;28;20192;-75
2022/12/06 12:41:38;;;;;;;7.38;1.35;;;;;14.00;101761.00;;;;5007947;28;20534;-75
2022/12/06 12:44:13;;;;;;;1.60;1.25;;;;;14.10;101758.00;;;;5021858;28;20196;-75
2022/12/06 12:46:43;;;;;;;1.65;1.35;;;;;14.10;101752.00;;;;5023088;28;20214;-76
2022/12/06 12:49:23;;;;;;;2.17;1.40;;;;;14.00;101757.00;;;;5008047;28;20226;-76
2022/12/06 12:51:52;;;;;;;1.40;0.98;;;;;14.10;101752.00;;;;5012195;28;20197;-76